sensor_id;sensor_type;location;lat;lon;timestamp;pressure;altitude;pressure_sealevel;temperature;humidity
10348;BME280;5220;43.192;23.284;2023-05-31T00:01:29;96992.16;;;17.69;100.00
10348;BME280;5220;43.192;23.284;2023-05-31T00:03:56;96985.38;;;17.58;100.00
10348;BME280;5220;43.192;23.284;2023-05-31T00:06:22;96990.84;;;17.65;100.00
10348;BME280;5220;43.192;23.284;2023-05-31T00:08:51;96992.34;;;17.67;100.00
10348;BME280;5220;43.192;23.284;2023-05-31T00:11:17;96986.91;;;17.69;100.00
10348;BME280;5220;43.192;23.284;2023-05-31T00:13:44;96989.91;;;17.74;100.00
10348;BME280;5220;43.192;23.284;2023-05-31T00:16:11;96987.13;;;17.76;100.00
10348;BME280;5220;43.192;23.284;2023-05-31T00:18:38;96993.88;;;17.78;100.00
10348;BME280;5220;43.192;23.284;2023-05-31T00:21:05;96999.00;;;17.80;100.00
10348;BME280;5220;43.192;23.284;2023-05-31T00:23:32;96992.59;;;17.82;100.00
10348;BME280;5220;43.192;23.284;2023-05-31T00:26:00;96993.88;;;17.78;100.00
10348;BME280;5220;43.192;23.284;2023-05-31T00:28:26;96988.28;;;17.81;100.00
10348;BME280;5220;43.192;23.284;2023-05-31T00:30:53;96989.94;;;17.82;100.00
10348;BME280;5220;43.192;23.284;2023-05-31T00:33:20;96989.66;;;17.85;100.00
10348;BME280;5220;43.192;23.284;2023-05-31T00:35:47;96983.41;;;17.86;100.00
10348;BME280;5220;43.192;23.284;2023-05-31T00:38:13;96976.16;;;17.88;100.00
10348;BME280;5220;43.192;23.284;2023-05-31T00:40:40;96972.56;;;17.89;100.00
10348;BME280;5220;43.192;23.284;2023-05-31T00:43:08;96979.47;;;17.90;100.00
10348;BME280;5220;43.192;23.284;2023-05-31T00:45:35;96969.94;;;17.89;100.00
10348;BME280;5220;43.192;23.284;2023-05-31T00:48:02;96977.50;;;17.92;100.00
10348;BME280;5220;43.192;23.284;2023-05-31T00:50:29;96975.34;;;17.88;100.00
10348;BME280;5220;43.192;23.284;2023-05-31T00:52:57;96968.44;;;17.87;100.00
10348;BME280;5220;43.192;23.284;2023-05-31T00:55:24;96981.13;;;17.91;100.00
10348;BME280;5220;43.192;23.284;2023-05-31T00:57:51;96964.19;;;17.94;100.00
10348;BME280;5220;43.192;23.284;2023-05-31T01:00:19;96983.28;;;17.96;100.00
10348;BME280;5220;43.192;23.284;2023-05-31T01:02:48;96976.69;;;17.92;100.00
10348;BME280;5220;43.192;23.284;2023-05-31T01:05:16;96979.47;;;17.90;100.00
10348;BME280;5220;43.192;23.284;2023-05-31T01:07:43;96975.84;;;17.91;100.00
10348;BME280;5220;43.192;23.284;2023-05-31T01:10:11;96983.63;;;17.93;100.00
10348;BME280;5220;43.192;23.284;2023-05-31T01:12:52;96973.09;;;17.93;100.00
10348;BME280;5220;43.192;23.284;2023-05-31T01:15:26;96975.84;;;17.91;100.00
10348;BME280;5220;43.192;23.284;2023-05-31T01:18:01;96981.13;;;17.91;100.00
10348;BME280;5220;43.192;23.284;2023-05-31T01:20:35;96976.03;;;17.64;100.00
10348;BME280;5220;43.192;23.284;2023-05-31T01:23:08;96976.69;;;17.66;100.00
10348;BME280;5220;43.192;23.284;2023-05-31T01:26:05;96985.50;;;17.75;100.00
10348;BME280;5220;43.192;23.284;2023-05-31T01:28:36;96986.66;;;17.80;100.00
10348;BME280;5220;43.192;23.284;2023-05-31T01:31:07;96988.16;;;17.83;100.00
10348;BME280;5220;43.192;23.284;2023-05-31T01:33:34;96992.94;;;17.87;100.00
10348;BME280;5220;43.192;23.284;2023-05-31T01:36:02;96990.31;;;17.87;100.00
10348;BME280;5220;43.192;23.284;2023-05-31T01:38:29;96990.00;;;17.90;100.00
10348;BME280;5220;43.192;23.284;2023-05-31T01:40:56;96994.28;;;17.91;100.00
10348;BME280;5220;43.192;23.284;2023-05-31T01:43:25;96997.75;;;17.92;100.00
10348;BME280;5220;43.192;23.284;2023-05-31T01:45:56;96996.59;;;17.94;100.00
10348;BME280;5220;43.192;23.284;2023-05-31T01:48:24;96991.34;;;17.94;100.00
10348;BME280;5220;43.192;23.284;2023-05-31T01:50:52;96994.66;;;17.96;100.00
10348;BME280;5220;43.192;23.284;2023-05-31T01:53:19;96991.03;;;17.97;100.00
10348;BME280;5220;43.192;23.284;2023-05-31T01:55:47;96987.41;;;17.98;100.00
10348;BME280;5220;43.192;23.284;2023-05-31T01:58:15;96999.28;;;18.02;100.00
10348;BME280;5220;43.192;23.284;2023-05-31T02:00:43;96987.94;;;18.02;100.00
10348;BME280;5220;43.192;23.284;2023-05-31T02:03:11;96994.03;;;18.02;100.00
10348;BME280;5220;43.192;23.284;2023-05-31T02:05:53;96998.28;;;18.03;100.00
10348;BME280;5220;43.192;23.284;2023-05-31T02:08:20;96989.88;;;18.00;100.00
10348;BME280;5220;43.192;23.284;2023-05-31T02:10:47;97002.72;;;18.03;100.00
10348;BME280;5220;43.192;23.284;2023-05-31T02:13:13;96980.16;;;17.92;100.00
10348;BME280;5220;43.192;23.284;2023-05-31T02:15:40;96991.22;;;18.04;100.00
10348;BME280;5220;43.192;23.284;2023-05-31T02:18:07;97000.47;;;18.08;100.00
10348;BME280;5220;43.192;23.284;2023-05-31T02:20:35;97001.13;;;18.10;100.00
10348;BME280;5220;43.192;23.284;2023-05-31T02:23:02;97000.28;;;18.09;100.00
10348;BME280;5220;43.192;23.284;2023-05-31T02:25:29;97004.59;;;18.10;100.00
10348;BME280;5220;43.192;23.284;2023-05-31T02:27:55;97005.56;;;18.09;100.00
10348;BME280;5220;43.192;23.284;2023-05-31T02:30:27;97006.06;;;18.13;100.00
10348;BME280;5220;43.192;23.284;2023-05-31T02:32:54;97012.81;;;18.15;100.00
10348;BME280;5220;43.192;23.284;2023-05-31T02:35:20;97007.56;;;18.15;100.00
10348;BME280;5220;43.192;23.284;2023-05-31T02:37:49;97001.31;;;18.16;100.00
10348;BME280;5220;43.192;23.284;2023-05-31T02:40:15;97005.94;;;18.14;100.00
10348;BME280;5220;43.192;23.284;2023-05-31T02:42:43;97010.38;;;18.14;100.00
10348;BME280;5220;43.192;23.284;2023-05-31T02:45:10;97004.94;;;18.15;100.00
10348;BME280;5220;43.192;23.284;2023-05-31T02:47:38;97004.94;;;18.15;100.00
10348;BME280;5220;43.192;23.284;2023-05-31T02:50:06;97013.66;;;18.16;100.00
10348;BME280;5220;43.192;23.284;2023-05-31T02:52:34;97014.50;;;18.16;100.00
10348;BME280;5220;43.192;23.284;2023-05-31T02:55:02;97007.56;;;18.15;100.00
10348;BME280;5220;43.192;23.284;2023-05-31T02:57:29;97016.28;;;18.16;100.00
10348;BME280;5220;43.192;23.284;2023-05-31T02:59:57;97012.50;;;18.18;100.00
10348;BME280;5220;43.192;23.284;2023-05-31T03:02:25;97021.09;;;18.20;100.00
10348;BME280;5220;43.192;23.284;2023-05-31T03:04:52;97020.94;;;18.22;100.00
10348;BME280;5220;43.192;23.284;2023-05-31T03:07:19;97024.38;;;18.22;100.00
10348;BME280;5220;43.192;23.284;2023-05-31T03:09:46;97035.09;;;18.21;100.00
10348;BME280;5220;43.192;23.284;2023-05-31T03:12:14;97028.00;;;18.21;100.00
10348;BME280;5220;43.192;23.284;2023-05-31T03:14:41;97027.03;;;18.22;100.00
10348;BME280;5220;43.192;23.284;2023-05-31T03:17:08;97032.28;;;18.22;100.00
10348;BME280;5220;43.192;23.284;2023-05-31T03:19:34;97034.59;;;18.25;100.00
10348;BME280;5220;43.192;23.284;2023-05-31T03:22:01;97038.72;;;18.28;100.00
10348;BME280;5220;43.192;23.284;2023-05-31T03:24:28;97043.03;;;18.29;100.00
10348;BME280;5220;43.192;23.284;2023-05-31T03:26:55;97041.38;;;18.28;100.00
10348;BME280;5220;43.192;23.284;2023-05-31T03:29:23;97043.19;;;18.27;100.00
10348;BME280;5220;43.192;23.284;2023-05-31T03:31:50;97051.25;;;18.26;100.00
10348;BME280;5220;43.192;23.284;2023-05-31T03:34:16;97054.38;;;18.30;100.00
10348;BME280;5220;43.192;23.284;2023-05-31T03:36:43;97061.97;;;18.33;100.00
10348;BME280;5220;43.192;23.284;2023-05-31T03:39:10;97056.41;;;18.36;100.00
10348;BME280;5220;43.192;23.284;2023-05-31T03:41:37;97060.38;;;18.40;100.00
10348;BME280;5220;43.192;23.284;2023-05-31T03:44:03;97055.75;;;18.42;100.00
10348;BME280;5220;43.192;23.284;2023-05-31T03:46:32;97055.59;;;18.43;100.00
10348;BME280;5220;43.192;23.284;2023-05-31T03:48:58;97059.56;;;18.47;100.00
10348;BME280;5220;43.192;23.284;2023-05-31T03:51:25;97062.06;;;18.49;100.00
10348;BME280;5220;43.192;23.284;2023-05-31T03:53:52;97061.59;;;18.53;100.00
10348;BME280;5220;43.192;23.284;2023-05-31T03:56:18;97072.97;;;18.54;100.00
10348;BME280;5220;43.192;23.284;2023-05-31T03:58:46;97071.34;;;18.61;100.00
10348;BME280;5220;43.192;23.284;2023-05-31T04:01:12;97072.00;;;18.63;100.00
10348;BME280;5220;43.192;23.284;2023-05-31T04:03:40;97082.25;;;18.66;100.00
10348;BME280;5220;43.192;23.284;2023-05-31T04:06:07;97076.81;;;18.67;100.00
10348;BME280;5220;43.192;23.284;2023-05-31T04:08:34;97071.22;;;18.70;100.00
10348;BME280;5220;43.192;23.284;2023-05-31T04:11:00;97075.34;;;18.73;100.00
10348;BME280;5220;43.192;23.284;2023-05-31T04:13:27;97071.44;;;18.77;100.00
10348;BME280;5220;43.192;23.284;2023-05-31T04:15:54;97074.53;;;18.80;100.00
10348;BME280;5220;43.192;23.284;2023-05-31T04:18:20;97078.69;;;18.83;100.00
10348;BME280;5220;43.192;23.284;2023-05-31T04:20:48;97080.00;;;18.87;100.00
10348;BME280;5220;43.192;23.284;2023-05-31T04:23:15;97088.59;;;18.89;100.00
10348;BME280;5220;43.192;23.284;2023-05-31T04:25:42;97090.22;;;18.90;100.00
10348;BME280;5220;43.192;23.284;2023-05-31T04:28:10;97096.69;;;18.96;100.00
10348;BME280;5220;43.192;23.284;2023-05-31T04:30:38;97094.53;;;18.99;100.00
10348;BME280;5220;43.192;23.284;2023-05-31T04:33:04;97088.97;;;19.02;100.00
10348;BME280;5220;43.192;23.284;2023-05-31T04:35:31;97091.28;;;19.05;100.00
10348;BME280;5220;43.192;23.284;2023-05-31T04:38:00;97089.13;;;19.09;100.00
10348;BME280;5220;43.192;23.284;2023-05-31T04:40:28;97081.72;;;19.12;100.00
10348;BME280;5220;43.192;23.284;2023-05-31T04:42:57;97095.59;;;19.14;100.00
10348;BME280;5220;43.192;23.284;2023-05-31T04:45:24;97090.31;;;19.14;100.00
10348;BME280;5220;43.192;23.284;2023-05-31T04:47:50;97095.25;;;19.17;100.00
10348;BME280;5220;43.192;23.284;2023-05-31T04:50:17;97100.03;;;19.22;100.00
10348;BME280;5220;43.192;23.284;2023-05-31T04:52:44;97103.84;;;19.27;100.00
10348;BME280;5220;43.192;23.284;2023-05-31T04:55:13;97114.06;;;19.30;100.00
10348;BME280;5220;43.192;23.284;2023-05-31T04:57:40;97114.09;;;19.39;100.00
10348;BME280;5220;43.192;23.284;2023-05-31T05:00:08;97110.84;;;19.53;100.00
10348;BME280;5220;43.192;23.284;2023-05-31T05:02:35;97107.72;;;19.65;100.00
10348;BME280;5220;43.192;23.284;2023-05-31T05:05:02;97114.31;;;19.77;100.00
10348;BME280;5220;43.192;23.284;2023-05-31T05:07:32;97117.78;;;19.94;100.00
10348;BME280;5220;43.192;23.284;2023-05-31T05:09:59;97115.63;;;20.06;100.00
10348;BME280;5220;43.192;23.284;2023-05-31T05:12:27;97125.03;;;20.16;100.00
10348;BME280;5220;43.192;23.284;2023-05-31T05:14:53;97137.91;;;20.27;100.00
10348;BME280;5220;43.192;23.284;2023-05-31T05:17:20;97128.75;;;20.70;100.00
10348;BME280;5220;43.192;23.284;2023-05-31T05:19:47;97132.53;;;21.15;100.00
10348;BME280;5220;43.192;23.284;2023-05-31T05:22:13;97137.97;;;21.98;100.00
10348;BME280;5220;43.192;23.284;2023-05-31T05:24:40;97146.31;;;22.46;100.00
10348;BME280;5220;43.192;23.284;2023-05-31T05:27:07;97144.94;;;23.24;100.00
10348;BME280;5220;43.192;23.284;2023-05-31T05:29:35;97150.78;;;23.34;100.00
10348;BME280;5220;43.192;23.284;2023-05-31T05:32:02;97149.84;;;23.41;100.00
10348;BME280;5220;43.192;23.284;2023-05-31T05:34:29;97157.28;;;23.17;100.00
10348;BME280;5220;43.192;23.284;2023-05-31T05:36:55;97154.81;;;23.30;100.00
10348;BME280;5220;43.192;23.284;2023-05-31T05:39:22;97155.66;;;23.66;100.00
10348;BME280;5220;43.192;23.284;2023-05-31T05:41:49;97149.28;;;24.52;100.00
10348;BME280;5220;43.192;23.284;2023-05-31T05:44:15;97152.38;;;24.83;100.00
10348;BME280;5220;43.192;23.284;2023-05-31T05:46:44;97152.75;;;25.14;100.00
10348;BME280;5220;43.192;23.284;2023-05-31T05:49:10;97147.06;;;25.31;100.00
10348;BME280;5220;43.192;23.284;2023-05-31T05:51:37;97149.59;;;25.45;100.00
10348;BME280;5220;43.192;23.284;2023-05-31T05:54:04;97149.06;;;25.76;100.00
10348;BME280;5220;43.192;23.284;2023-05-31T05:56:31;97152.38;;;25.91;100.00
10348;BME280;5220;43.192;23.284;2023-05-31T05:58:58;97149.28;;;25.21;100.00
10348;BME280;5220;43.192;23.284;2023-05-31T06:01:25;97156.38;;;24.17;100.00
10348;BME280;5220;43.192;23.284;2023-05-31T06:03:53;97164.09;;;24.12;100.00
10348;BME280;5220;43.192;23.284;2023-05-31T06:06:21;97166.00;;;24.18;100.00
10348;BME280;5220;43.192;23.284;2023-05-31T06:08:47;97165.44;;;23.15;100.00
10348;BME280;5220;43.192;23.284;2023-05-31T06:11:15;97163.44;;;23.89;100.00
10348;BME280;5220;43.192;23.284;2023-05-31T06:13:44;97167.50;;;23.85;100.00
10348;BME280;5220;43.192;23.284;2023-05-31T06:16:12;97159.88;;;23.61;100.00
10348;BME280;5220;43.192;23.284;2023-05-31T06:18:39;97162.44;;;23.69;100.00
10348;BME280;5220;43.192;23.284;2023-05-31T06:21:08;97162.31;;;23.26;100.00
10348;BME280;5220;43.192;23.284;2023-05-31T06:23:35;97165.63;;;23.28;100.00
10348;BME280;5220;43.192;23.284;2023-05-31T06:26:02;97162.34;;;23.62;100.00
10348;BME280;5220;43.192;23.284;2023-05-31T06:28:29;97165.16;;;23.75;100.00
10348;BME280;5220;43.192;23.284;2023-05-31T06:30:58;97163.31;;;23.76;100.00
10348;BME280;5220;43.192;23.284;2023-05-31T06:33:26;97166.72;;;23.04;100.00
10348;BME280;5220;43.192;23.284;2023-05-31T06:35:54;97172.03;;;23.19;100.00
10348;BME280;5220;43.192;23.284;2023-05-31T06:38:23;97166.69;;;23.34;100.00
10348;BME280;5220;43.192;23.284;2023-05-31T06:40:50;97168.78;;;23.38;100.00
10348;BME280;5220;43.192;23.284;2023-05-31T06:43:18;97164.91;;;23.05;100.00
10348;BME280;5220;43.192;23.284;2023-05-31T06:45:47;97165.66;;;22.84;100.00
10348;BME280;5220;43.192;23.284;2023-05-31T06:48:13;97161.34;;;22.98;100.00
10348;BME280;5220;43.192;23.284;2023-05-31T06:50:40;97165.00;;;22.97;100.00
10348;BME280;5220;43.192;23.284;2023-05-31T06:53:08;97163.41;;;22.59;100.00
10348;BME280;5220;43.192;23.284;2023-05-31T06:55:39;97170.31;;;22.82;100.00
10348;BME280;5220;43.192;23.284;2023-05-31T06:58:06;97167.28;;;22.85;100.00
10348;BME280;5220;43.192;23.284;2023-05-31T07:00:33;97161.34;;;22.83;100.00
10348;BME280;5220;43.192;23.284;2023-05-31T07:03:01;97169.13;;;22.85;100.00
10348;BME280;5220;43.192;23.284;2023-05-31T07:05:28;97174.53;;;22.91;100.00
10348;BME280;5220;43.192;23.284;2023-05-31T07:07:55;97169.47;;;23.11;100.00
10348;BME280;5220;43.192;23.284;2023-05-31T07:10:21;97161.06;;;23.22;100.00
10348;BME280;5220;43.192;23.284;2023-05-31T07:12:49;97167.16;;;23.37;100.00
10348;BME280;5220;43.192;23.284;2023-05-31T07:15:17;97170.00;;;23.50;100.00
10348;BME280;5220;43.192;23.284;2023-05-31T07:17:44;97169.25;;;23.57;100.00
10348;BME280;5220;43.192;23.284;2023-05-31T07:20:10;97164.06;;;23.70;100.00
10348;BME280;5220;43.192;23.284;2023-05-31T07:22:37;97155.22;;;23.84;100.00
10348;BME280;5220;43.192;23.284;2023-05-31T07:25:05;97158.69;;;24.05;100.00
10348;BME280;5220;43.192;23.284;2023-05-31T07:27:32;97162.97;;;24.21;100.00
10348;BME280;5220;43.192;23.284;2023-05-31T07:30:00;97158.19;;;24.38;100.00
10348;BME280;5220;43.192;23.284;2023-05-31T07:32:28;97166.97;;;24.38;100.00
10348;BME280;5220;43.192;23.284;2023-05-31T07:34:54;97166.34;;;24.36;100.00
10348;BME280;5220;43.192;23.284;2023-05-31T07:37:21;97159.69;;;24.19;100.00
10348;BME280;5220;43.192;23.284;2023-05-31T07:39:48;97162.56;;;24.24;100.00
10348;BME280;5220;43.192;23.284;2023-05-31T07:42:21;97155.66;;;24.30;100.00
10348;BME280;5220;43.192;23.284;2023-05-31T07:44:47;97149.81;;;24.41;100.00
10348;BME280;5220;43.192;23.284;2023-05-31T07:47:16;97148.22;;;24.46;100.00
10348;BME280;5220;43.192;23.284;2023-05-31T07:49:44;97150.44;;;24.43;100.00
10348;BME280;5220;43.192;23.284;2023-05-31T07:52:11;97151.34;;;24.29;100.00
10348;BME280;5220;43.192;23.284;2023-05-31T07:54:38;97148.72;;;24.35;100.00
10348;BME280;5220;43.192;23.284;2023-05-31T07:57:05;97159.09;;;24.51;100.00
10348;BME280;5220;43.192;23.284;2023-05-31T07:59:32;97148.50;;;24.58;100.00
10348;BME280;5220;43.192;23.284;2023-05-31T08:01:58;97150.19;;;24.66;100.00
10348;BME280;5220;43.192;23.284;2023-05-31T08:04:26;97153.38;;;24.54;100.00
10348;BME280;5220;43.192;23.284;2023-05-31T08:06:53;97149.72;;;24.55;100.00
10348;BME280;5220;43.192;23.284;2023-05-31T08:09:20;97152.44;;;24.13;100.00
10348;BME280;5220;43.192;23.284;2023-05-31T08:11:47;97151.16;;;24.09;100.00
10348;BME280;5220;43.192;23.284;2023-05-31T08:14:14;97154.53;;;23.96;100.00
10348;BME280;5220;43.192;23.284;2023-05-31T08:16:40;97147.69;;;24.08;100.00
10348;BME280;5220;43.192;23.284;2023-05-31T08:19:07;97148.66;;;24.22;100.00
10348;BME280;5220;43.192;23.284;2023-05-31T08:21:35;97144.97;;;24.23;100.00
10348;BME280;5220;43.192;23.284;2023-05-31T08:24:02;97143.34;;;24.22;100.00
10348;BME280;5220;43.192;23.284;2023-05-31T08:26:31;97148.06;;;24.05;100.00
10348;BME280;5220;43.192;23.284;2023-05-31T08:28:57;97147.25;;;24.05;100.00
10348;BME280;5220;43.192;23.284;2023-05-31T08:31:24;97152.88;;;23.95;100.00
10348;BME280;5220;43.192;23.284;2023-05-31T08:33:56;97150.81;;;23.91;100.00
10348;BME280;5220;43.192;23.284;2023-05-31T08:36:24;97156.69;;;23.86;100.00
10348;BME280;5220;43.192;23.284;2023-05-31T08:38:53;97153.56;;;23.83;100.00
10348;BME280;5220;43.192;23.284;2023-05-31T08:41:20;97147.41;;;23.61;100.00
10348;BME280;5220;43.192;23.284;2023-05-31T08:43:49;97143.63;;;23.49;100.00
10348;BME280;5220;43.192;23.284;2023-05-31T08:46:15;97146.66;;;23.46;100.00
10348;BME280;5220;43.192;23.284;2023-05-31T08:48:45;97132.44;;;23.39;100.00
10348;BME280;5220;43.192;23.284;2023-05-31T08:51:15;97139.22;;;23.41;100.00
10348;BME280;5220;43.192;23.284;2023-05-31T08:53:43;97130.53;;;23.33;100.00
10348;BME280;5220;43.192;23.284;2023-05-31T08:56:12;97138.44;;;23.12;100.00
10348;BME280;5220;43.192;23.284;2023-05-31T08:58:42;97136.91;;;23.02;100.00
10348;BME280;5220;43.192;23.284;2023-05-31T09:01:09;97141.00;;;23.20;100.00
10348;BME280;5220;43.192;23.284;2023-05-31T09:03:37;97137.34;;;23.21;100.00
10348;BME280;5220;43.192;23.284;2023-05-31T09:06:04;97134.38;;;23.30;100.00
10348;BME280;5220;43.192;23.284;2023-05-31T09:08:31;97132.56;;;23.31;100.00
10348;BME280;5220;43.192;23.284;2023-05-31T09:11:00;97130.91;;;23.30;100.00
10348;BME280;5220;43.192;23.284;2023-05-31T09:13:28;97139.69;;;23.45;100.00
10348;BME280;5220;43.192;23.284;2023-05-31T09:15:55;97128.69;;;23.48;100.00
10348;BME280;5220;43.192;23.284;2023-05-31T09:18:23;97132.31;;;23.62;100.00
10348;BME280;5220;43.192;23.284;2023-05-31T09:20:55;97134.22;;;23.68;100.00
10348;BME280;5220;43.192;23.284;2023-05-31T09:23:23;97118.28;;;23.68;100.00
10348;BME280;5220;43.192;23.284;2023-05-31T09:25:51;97120.41;;;23.79;100.00
10348;BME280;5220;43.192;23.284;2023-05-31T09:28:19;97117.66;;;23.87;100.00
10348;BME280;5220;43.192;23.284;2023-05-31T09:31:00;97119.91;;;24.11;100.00
10348;BME280;5220;43.192;23.284;2023-05-31T09:33:37;97116.78;;;24.29;100.00
10348;BME280;5220;43.192;23.284;2023-05-31T09:36:05;97110.94;;;24.12;100.00
10348;BME280;5220;43.192;23.284;2023-05-31T09:38:32;97116.44;;;23.89;100.00
10348;BME280;5220;43.192;23.284;2023-05-31T09:41:11;97116.88;;;23.93;100.00
10348;BME280;5220;43.192;23.284;2023-05-31T09:43:39;97114.16;;;23.86;100.00
10348;BME280;5220;43.192;23.284;2023-05-31T09:46:12;97105.88;;;23.75;100.00
10348;BME280;5220;43.192;23.284;2023-05-31T09:48:39;97105.38;;;23.29;100.00
10348;BME280;5220;43.192;23.284;2023-05-31T09:51:07;97097.06;;;23.17;100.00
10348;BME280;5220;43.192;23.284;2023-05-31T09:53:37;97098.66;;;23.33;100.00
10348;BME280;5220;43.192;23.284;2023-05-31T09:56:08;97102.13;;;23.12;100.00
10348;BME280;5220;43.192;23.284;2023-05-31T09:58:35;97092.75;;;23.31;100.00
10348;BME280;5220;43.192;23.284;2023-05-31T10:01:02;97090.81;;;23.39;100.00
10348;BME280;5220;43.192;23.284;2023-05-31T10:03:31;97081.53;;;23.50;100.00
10348;BME280;5220;43.192;23.284;2023-05-31T10:08:26;97083.56;;;23.33;100.00
10348;BME280;5220;43.192;23.284;2023-05-31T10:10:54;97082.16;;;23.16;100.00
10348;BME280;5220;43.192;23.284;2023-05-31T10:13:24;97078.16;;;23.41;100.00
10348;BME280;5220;43.192;23.284;2023-05-31T10:15:54;97071.66;;;23.29;100.00
10348;BME280;5220;43.192;23.284;2023-05-31T10:18:21;97068.41;;;23.70;100.00
10348;BME280;5220;43.192;23.284;2023-05-31T10:20:58;97061.59;;;23.82;100.00
10348;BME280;5220;43.192;23.284;2023-05-31T10:23:28;97069.47;;;23.96;100.00
10348;BME280;5220;43.192;23.284;2023-05-31T10:26:01;97068.63;;;24.17;100.00
10348;BME280;5220;43.192;23.284;2023-05-31T10:28:36;97066.41;;;24.21;100.00
10348;BME280;5220;43.192;23.284;2023-05-31T10:31:03;97074.34;;;24.14;100.00
10348;BME280;5220;43.192;23.284;2023-05-31T10:33:30;97069.75;;;24.29;100.00
10348;BME280;5220;43.192;23.284;2023-05-31T10:36:00;97072.69;;;24.13;100.00
10348;BME280;5220;43.192;23.284;2023-05-31T10:38:30;97077.22;;;24.13;100.00
10348;BME280;5220;43.192;23.284;2023-05-31T10:41:02;97081.69;;;24.12;100.00
10348;BME280;5220;43.192;23.284;2023-05-31T10:43:36;97093.78;;;24.15;100.00
10348;BME280;5220;43.192;23.284;2023-05-31T10:46:06;97094.78;;;23.92;100.00
10348;BME280;5220;43.192;23.284;2023-05-31T10:48:42;97102.25;;;23.82;100.00
10348;BME280;5220;43.192;23.284;2023-05-31T10:51:11;97089.94;;;23.18;100.00
10348;BME280;5220;43.192;23.284;2023-05-31T10:53:39;97084.84;;;23.37;100.00
10348;BME280;5220;43.192;23.284;2023-05-31T10:56:07;97073.94;;;23.32;100.00
10348;BME280;5220;43.192;23.284;2023-05-31T10:58:35;97073.16;;;23.32;100.00
10348;BME280;5220;43.192;23.284;2023-05-31T11:01:04;97070.97;;;23.21;100.00
10348;BME280;5220;43.192;23.284;2023-05-31T11:03:33;97074.13;;;23.10;100.00
10348;BME280;5220;43.192;23.284;2023-05-31T11:06:01;97061.63;;;23.03;100.00
10348;BME280;5220;43.192;23.284;2023-05-31T11:08:32;97062.91;;;22.93;100.00
10348;BME280;5220;43.192;23.284;2023-05-31T11:11:26;97058.38;;;22.72;100.00
10348;BME280;5220;43.192;23.284;2023-05-31T11:13:57;97058.28;;;22.66;100.00
10348;BME280;5220;43.192;23.284;2023-05-31T11:16:25;97061.19;;;22.56;100.00
10348;BME280;5220;43.192;23.284;2023-05-31T11:19:02;97060.91;;;22.51;100.00
10348;BME280;5220;43.192;23.284;2023-05-31T11:21:48;97084.75;;;22.36;100.00
10348;BME280;5220;43.192;23.284;2023-05-31T11:24:29;97106.56;;;21.86;100.00
10348;BME280;5220;43.192;23.284;2023-05-31T11:26:57;97103.28;;;21.39;100.00
10348;BME280;5220;43.192;23.284;2023-05-31T11:29:25;97101.56;;;20.84;100.00
10348;BME280;5220;43.192;23.284;2023-05-31T11:31:59;97099.06;;;20.44;100.00
10348;BME280;5220;43.192;23.284;2023-05-31T11:34:31;97103.09;;;20.71;100.00
10348;BME280;5220;43.192;23.284;2023-05-31T11:37:00;97110.94;;;20.56;100.00
10348;BME280;5220;43.192;23.284;2023-05-31T11:39:29;97109.81;;;20.43;100.00
10348;BME280;5220;43.192;23.284;2023-05-31T11:41:57;97097.38;;;20.59;100.00
10348;BME280;5220;43.192;23.284;2023-05-31T11:44:28;97103.84;;;20.57;100.00
10348;BME280;5220;43.192;23.284;2023-05-31T11:46:59;97095.91;;;20.49;100.00
10348;BME280;5220;43.192;23.284;2023-05-31T11:49:27;97096.06;;;20.55;100.00
10348;BME280;5220;43.192;23.284;2023-05-31T11:51:55;97092.66;;;20.38;100.00
10348;BME280;5220;43.192;23.284;2023-05-31T11:54:25;97098.28;;;20.27;100.00
10348;BME280;5220;43.192;23.284;2023-05-31T11:56:57;97083.06;;;20.37;100.00
10348;BME280;5220;43.192;23.284;2023-05-31T11:59:25;97076.94;;;20.45;100.00
10348;BME280;5220;43.192;23.284;2023-05-31T12:01:56;97066.38;;;20.45;100.00
10348;BME280;5220;43.192;23.284;2023-05-31T12:04:28;97061.53;;;20.49;100.00
10348;BME280;5220;43.192;23.284;2023-05-31T12:06:55;97061.25;;;20.44;100.00
10348;BME280;5220;43.192;23.284;2023-05-31T12:09:23;97065.41;;;20.38;100.00
10348;BME280;5220;43.192;23.284;2023-05-31T12:11:50;97073.16;;;20.39;100.00
10348;BME280;5220;43.192;23.284;2023-05-31T12:14:19;97069.97;;;20.52;100.00
10348;BME280;5220;43.192;23.284;2023-05-31T12:16:46;97076.22;;;20.59;100.00
10348;BME280;5220;43.192;23.284;2023-05-31T12:19:15;97072.34;;;20.23;100.00
10348;BME280;5220;43.192;23.284;2023-05-31T12:21:41;97078.41;;;20.48;100.00
10348;BME280;5220;43.192;23.284;2023-05-31T12:24:11;97075.25;;;20.52;100.00
10348;BME280;5220;43.192;23.284;2023-05-31T12:26:40;97058.91;;;20.49;100.00
10348;BME280;5220;43.192;23.284;2023-05-31T12:29:08;97070.94;;;20.67;100.00
10348;BME280;5220;43.192;23.284;2023-05-31T12:31:44;97073.53;;;20.75;100.00
10348;BME280;5220;43.192;23.284;2023-05-31T12:34:13;97067.19;;;20.84;100.00
10348;BME280;5220;43.192;23.284;2023-05-31T12:36:44;97075.13;;;20.84;100.00
10348;BME280;5220;43.192;23.284;2023-05-31T12:39:13;97073.88;;;20.72;100.00
10348;BME280;5220;43.192;23.284;2023-05-31T12:41:43;97070.16;;;20.43;100.00
10348;BME280;5220;43.192;23.284;2023-05-31T12:44:12;97069.38;;;20.34;100.00
10348;BME280;5220;43.192;23.284;2023-05-31T12:46:41;97063.88;;;20.52;100.00
10348;BME280;5220;43.192;23.284;2023-05-31T12:49:12;97058.56;;;20.60;100.00
10348;BME280;5220;43.192;23.284;2023-05-31T12:51:39;97066.63;;;20.66;100.00
10348;BME280;5220;43.192;23.284;2023-05-31T12:54:10;97073.38;;;20.69;100.00
10348;BME280;5220;43.192;23.284;2023-05-31T12:56:38;97074.84;;;20.71;100.00
10348;BME280;5220;43.192;23.284;2023-05-31T12:59:04;97068.50;;;20.50;100.00